Time;durP1;ratioP1;P1;durP2;ratioP2;P2;SDS_P1;SDS_P2;PMS_P1;PMS_P2;Temp;Humidity;BMP_temperature;BMP_pressure;BME280_temperature;BME280_humidity;BME280_pressure;Samples;Min_cycle;Max_cycle;Signal;HPM_P1;HPM_P2
2022/03/12 00:01:34;;;;;;;;;;;26.20;1356.80;;;;;;5014044;28;20007;-77
2022/03/12 00:04:00;;;;;;;;;;;26.00;1382.40;;;;;;5014177;28;19959;-79
2022/03/12 00:06:26;;;;;;;;;;;26.30;1382.40;;;;;;5013215;28;20371;-85
2022/03/12 00:08:54;;;;;;;;;;;26.00;1408.00;;;;;;5013548;28;19914;-79
2022/03/12 00:11:24;;;;;;;;;;;26.00;1408.00;;;;;;5014384;28;19909;-75
2022/03/12 00:13:50;;;;;;;;;;;26.00;1408.00;;;;;;5027106;28;19917;-76
2022/03/12 00:16:21;;;;;;;;;;;26.00;1408.00;;;;;;5034647;28;19948;-77
2022/03/12 00:18:48;;;;;;;;;;;25.80;1433.60;;;;;;5033290;28;19905;-77
2022/03/12 00:21:13;;;;;;;;;;;25.80;1408.00;;;;;;5033098;28;20355;-76
2022/03/12 00:23:41;;;;;;;;;;;25.80;1433.60;;;;;;5032014;28;19909;-77
2022/03/12 00:26:07;;;;;;;;;;;25.80;1433.60;;;;;;5013398;28;20359;-76
2022/03/12 00:28:33;;;;;;;;;;;25.70;1459.20;;;;;;5013207;28;20011;-86
2022/03/12 00:30:59;;;;;;;;;;;25.80;1459.20;;;;;;5014758;28;19976;-84
2022/03/12 00:33:25;;;;;;;;;;;25.80;1459.20;;;;;;5014446;28;19905;-78
2022/03/12 00:35:52;;;;;;;;;;;25.70;1459.20;;;;;;5014555;28;20263;-77
2022/03/12 00:38:19;;;;;;;;;;;25.70;1459.20;;;;;;5014551;28;19940;-85
2022/03/12 00:40:44;;;;;;;;;;;25.80;1459.20;;;;;;5013045;28;19913;-80
2022/03/12 00:43:11;;;;;;;;;;;25.80;1459.20;;;;;;5014086;28;19914;-78
2022/03/12 00:45:37;;;;;;;;;;;25.80;1459.20;;;;;;5013055;28;19905;-76
2022/03/12 00:48:03;;;;;;;;;;;0.90;1484.80;;;;;;5014207;28;20361;-76
2022/03/12 00:50:29;;;;;;;;;;;25.70;1484.80;;;;;;5013872;28;19916;-85
2022/03/12 00:52:54;;;;;;;;;;;25.70;1484.80;;;;;;5018450;28;20354;-77
2022/03/12 00:55:20;;;;;;;;;;;25.70;1484.80;;;;;;5016770;28;20339;-76
2022/03/12 00:57:45;;;;;;;;;;;0.90;1484.80;;;;;;5017777;28;19948;-76
2022/03/12 01:00:13;;;;;;;;;;;25.70;1484.80;;;;;;5015815;28;19905;-76
2022/03/12 01:02:38;;;;;;;;;;;25.70;1484.80;;;;;;5018172;28;19928;-79
2022/03/12 01:05:04;;;;;;;;;;;0.90;1510.40;;;;;;5016414;28;19923;-80
2022/03/12 01:07:30;;;;;;;;;;;0.70;1510.40;;;;;;5018184;28;19914;-76
2022/03/12 01:09:56;;;;;;;;;;;0.70;1510.40;;;;;;5016497;28;19927;-75
2022/03/12 01:12:22;;;;;;;;;;;0.80;1510.40;;;;;;5017863;28;19932;-75
2022/03/12 01:14:47;;;;;;;;;;;0.80;1510.40;;;;;;5037408;28;20004;-76
2022/03/12 01:17:13;;;;;;;;;;;0.70;1510.40;;;;;;5037749;28;20355;-77
2022/03/12 01:19:38;;;;;;;;;;;0.60;1536.00;;;;;;5036320;28;19951;-79
2022/03/12 01:22:05;;;;;;;;;;;0.60;1536.00;;;;;;5037933;28;19909;-84
2022/03/12 01:24:31;;;;;;;;;;;0.50;1536.00;;;;;;5029017;28;20414;-75
2022/03/12 01:26:57;;;;;;;;;;;0.50;1561.60;;;;;;5017566;28;19909;-80
2022/03/12 01:29:23;;;;;;;;;;;0.50;1561.60;;;;;;5017890;28;19936;-78
2022/03/12 01:31:49;;;;;;;;;;;0.40;1561.60;;;;;;5016660;28;19959;-81
2022/03/12 01:34:14;;;;;;;;;;;0.30;1587.20;;;;;;5017543;28;19948;-75
2022/03/12 01:36:40;;;;;;;;;;;0.00;1612.80;;;;;;5016196;28;19906;-76
2022/03/12 01:39:05;;;;;;;;;;;0.20;1612.80;;;;;;5016602;28;20248;-78
2022/03/12 01:41:32;;;;;;;;;;;0.00;1638.40;;;;;;5016395;28;19913;-77
2022/03/12 01:43:59;;;;;;;;;;;12.90;1638.40;;;;;;5016300;28;19909;-77
2022/03/12 01:46:33;;;;;;;;;;;13.00;1638.40;;;;;;5028130;28;19904;-88
2022/03/12 01:48:59;;;;;;;;;;;0.10;1638.40;;;;;;5037795;28;20286;-80
2022/03/12 01:51:29;;;;;;;;;;;0.10;1638.40;;;;;;5040059;28;19908;-88
2022/03/12 01:53:54;;;;;;;;;;;0.10;1638.40;;;;;;5037393;28;19912;-77
2022/03/12 01:56:25;;;;;;;;;;;0.10;1638.40;;;;;;5035402;28;20314;-77
2022/03/12 01:58:50;;;;;;;;;;;12.90;1638.40;;;;;;5036569;28;19959;-76
2022/03/12 02:01:18;;;;;;;;;;;12.90;1638.40;;;;;;5036192;28;19905;-77
2022/03/12 02:03:46;;;;;;;;;;;13.00;1664.00;;;;;;5042603;28;20003;-76
2022/03/12 02:06:21;;;;;;;;;;;12.90;1664.00;;;;;;5044827;28;19917;-75
2022/03/12 02:08:49;;;;;;;;;;;13.00;1664.00;;;;;;5043036;28;19913;-76
2022/03/12 02:11:21;;;;;;;;;;;12.90;1664.00;;;;;;5043523;28;19924;-78
2022/03/12 02:13:47;;;;;;;;;;;13.00;1664.00;;;;;;5039827;28;20004;-76
2022/03/12 02:16:12;;;;;;;;;;;13.20;1689.60;;;;;;5036643;28;20371;-77
2022/03/12 02:18:38;;;;;;;;;;;13.00;1689.60;;;;;;5036776;28;20287;-87
2022/03/12 02:21:04;;;;;;;;;;;12.90;1689.60;;;;;;5035084;28;19905;-76
2022/03/12 02:23:29;;;;;;;;;;;13.00;1689.60;;;;;;5034893;28;19905;-76
2022/03/12 02:26:01;;;;;;;;;;;13.00;1689.60;;;;;;5036260;28;20414;-76
2022/03/12 02:28:27;;;;;;;;;;;13.20;1715.20;;;;;;5036140;28;19912;-76
2022/03/12 02:30:54;;;;;;;;;;;13.10;1715.20;;;;;;5034567;28;19955;-76
2022/03/12 02:33:24;;;;;;;;;;;13.10;1715.20;;;;;;5034712;28;19905;-77
2022/03/12 02:35:51;;;;;;;;;;;13.00;1715.20;;;;;;5034882;28;19904;-76
2022/03/12 02:38:19;;;;;;;;;;;13.00;1689.60;;;;;;5036089;28;20414;-77
2022/03/12 02:40:47;;;;;;;;;;;13.20;1715.20;;;;;;5034687;28;19905;-77
2022/03/12 02:43:13;;;;;;;;;;;13.10;1715.20;;;;;;5034237;28;19909;-86
2022/03/12 02:45:39;;;;;;;;;;;13.20;1715.20;;;;;;5034490;28;19905;-77
2022/03/12 02:48:06;;;;;;;;;;;13.20;1740.80;;;;;;5035913;28;19967;-76
2022/03/12 02:50:32;;;;;;;;;;;13.30;1766.40;;;;;;5034483;28;20464;-77
2022/03/12 02:52:58;;;;;;;;;;;13.20;1766.40;;;;;;5035579;28;19980;-76
2022/03/12 02:55:24;;;;;;;;;;;13.20;1740.80;;;;;;5035786;28;19905;-76
2022/03/12 02:57:50;;;;;;;;;;;13.20;1766.40;;;;;;5036090;28;19905;-76
2022/03/12 03:00:17;;;;;;;;;;;13.10;1766.40;;;;;;5036048;28;19952;-76
2022/03/12 03:02:52;;;;;;;;;;;13.10;1766.40;;;;;;5034565;28;19987;-87
2022/03/12 03:05:23;;;;;;;;;;;13.00;1766.40;;;;;;5034210;28;19917;-86
2022/03/12 03:07:57;;;;;;;;;;;13.10;1740.80;;;;;;5033992;28;19966;-76
2022/03/12 03:10:30;;;;;;;;;;;12.90;1766.40;;;;;;5035262;28;19905;-75
2022/03/12 03:12:58;;;;;;;;;;;13.00;1740.80;;;;;;5035000;28;20035;-76
2022/03/12 03:15:25;;;;;;;;;;;13.00;1740.80;;;;;;5035341;28;20028;-87
2022/03/12 03:17:51;;;;;;;;;;;13.00;1766.40;;;;;;5034273;28;19928;-76
2022/03/12 03:20:17;;;;;;;;;;;12.90;1766.40;;;;;;5035380;28;20355;-76
2022/03/12 03:22:43;;;;;;;;;;;13.00;1766.40;;;;;;5035337;28;19952;-87
2022/03/12 03:25:08;;;;;;;;;;;13.00;1766.40;;;;;;5034045;28;19944;-88
2022/03/12 03:27:34;;;;;;;;;;;13.00;1766.40;;;;;;5033904;28;19915;-83
2022/03/12 03:29:59;;;;;;;;;;;13.00;1766.40;;;;;;5034074;28;19931;-86
2022/03/12 03:32:25;;;;;;;;;;;12.90;1766.40;;;;;;5034285;28;19912;-76
2022/03/12 03:34:51;;;;;;;;;;;13.00;1766.40;;;;;;5033704;28;19905;-76
2022/03/12 03:37:16;;;;;;;;;;;12.90;1766.40;;;;;;5033852;28;20248;-76
2022/03/12 03:39:42;;;;;;;;;;;0.00;1766.40;;;;;;5033925;28;19912;-87
2022/03/12 03:42:07;;;;;;;;;;;0.10;1740.80;;;;;;5035077;28;19916;-76
2022/03/12 03:44:33;;;;;;;;;;;0.10;1740.80;;;;;;5034207;28;19913;-81
2022/03/12 03:46:59;;;;;;;;;;;0.30;1740.80;;;;;;5034201;28;19917;-80
2022/03/12 03:49:25;;;;;;;;;;;0.40;1715.20;;;;;;5034264;28;19964;-84
2022/03/12 03:51:51;;;;;;;;;;;0.40;1715.20;;;;;;5033433;28;19991;-76
2022/03/12 03:54:17;;;;;;;;;;;0.40;1715.20;;;;;;5034876;28;19905;-76
2022/03/12 03:56:43;;;;;;;;;;;0.50;1715.20;;;;;;5034801;28;19911;-77
2022/03/12 03:59:09;;;;;;;;;;;0.40;1715.20;;;;;;5033822;28;20347;-83
2022/03/12 04:01:41;;;;;;;;;;;0.60;1715.20;;;;;;5034383;28;19909;-86
2022/03/12 04:04:07;;;;;;;;;;;0.40;1715.20;;;;;;5033357;28;19905;-86
2022/03/12 04:06:34;;;;;;;;;;;0.40;1715.20;;;;;;5033142;28;20367;-87
2022/03/12 04:09:00;;;;;;;;;;;0.30;1715.20;;;;;;5033612;28;19959;-86
2022/03/12 04:11:26;;;;;;;;;;;0.40;1715.20;;;;;;5033771;28;19909;-76
2022/03/12 04:13:52;;;;;;;;;;;0.30;1715.20;;;;;;5033281;28;19909;-76
2022/03/12 04:16:19;;;;;;;;;;;0.20;1715.20;;;;;;5034605;28;19905;-88
2022/03/12 04:18:46;;;;;;;;;;;0.30;1715.20;;;;;;5033235;28;19905;-76
2022/03/12 04:21:16;;;;;;;;;;;0.20;1715.20;;;;;;5033294;28;19908;-77
2022/03/12 04:23:42;;;;;;;;;;;0.20;1740.80;;;;;;5033488;28;19955;-77
2022/03/12 04:26:09;;;;;;;;;;;0.10;1766.40;;;;;;5033976;28;19905;-77
2022/03/12 04:28:35;;;;;;;;;;;0.20;1792.00;;;;;;5033018;28;20016;-86
2022/03/12 04:31:02;;;;;;;;;;;0.10;1792.00;;;;;;5034581;28;19912;-84
2022/03/12 04:33:29;;;;;;;;;;;13.00;1817.60;;;;;;5034218;28;19967;-77
2022/03/12 04:35:55;;;;;;;;;;;13.00;1868.80;;;;;;5034347;28;19905;-88
2022/03/12 04:38:20;;;;;;;;;;;13.10;1894.40;;;;;;5033108;28;19905;-76
2022/03/12 04:40:46;;;;;;;;;;;13.10;1894.40;;;;;;5032274;28;19999;-77
2022/03/12 04:43:12;;;;;;;;;;;13.00;1894.40;;;;;;5033001;28;19955;-77
2022/03/12 04:45:39;;;;;;;;;;;13.00;1894.40;;;;;;5033395;28;20325;-88
2022/03/12 04:48:06;;;;;;;;;;;12.90;1868.80;;;;;;5032667;28;19963;-76
2022/03/12 04:50:32;;;;;;;;;;;12.90;1868.80;;;;;;5032264;28;19921;-77
2022/03/12 04:52:59;;;;;;;;;;;12.90;1843.20;;;;;;5033142;28;19905;-80
2022/03/12 04:55:25;;;;;;;;;;;13.00;1843.20;;;;;;5033107;28;19908;-88
2022/03/12 04:57:54;;;;;;;;;;;38.50;1945.60;;;;;;5033056;28;19920;-77
2022/03/12 05:00:29;;;;;;;;;;;38.80;2022.40;;;;;;5032828;28;19905;-77
2022/03/12 05:02:55;;;;;;;;;;;38.90;2073.60;;;;;;5035283;28;19905;-79
2022/03/12 05:05:21;;;;;;;;;;;38.70;2022.40;;;;;;5037794;28;19963;-78
2022/03/12 05:07:47;;;;;;;;;;;38.60;2048.00;;;;;;5035418;28;19913;-76
2022/03/12 05:10:13;;;;;;;;;;;38.40;1996.80;;;;;;5032812;28;19905;-77
2022/03/12 05:12:43;;;;;;;;;;;13.70;1996.80;;;;;;5034010;28;19917;-77
2022/03/12 05:15:14;;;;;;;;;;;13.50;1971.20;;;;;;5032361;28;20366;-79
2022/03/12 05:17:40;;;;;;;;;;;13.50;1945.60;;;;;;5032238;28;19963;-86
2022/03/12 05:20:07;;;;;;;;;;;13.40;1945.60;;;;;;5032483;28;19905;-89
2022/03/12 05:22:32;;;;;;;;;;;13.40;1945.60;;;;;;5032075;28;19993;-76
2022/03/12 05:24:58;;;;;;;;;;;13.30;1945.60;;;;;;5032545;28;20386;-89
2022/03/12 05:27:26;;;;;;;;;;;13.30;1945.60;;;;;;5033550;28;19945;-76
2022/03/12 05:29:54;;;;;;;;;;;13.30;1945.60;;;;;;5032508;28;19905;-79
2022/03/12 05:32:20;;;;;;;;;;;13.20;1920.00;;;;;;5031986;28;19956;-76
2022/03/12 05:34:46;;;;;;;;;;;13.00;1894.40;;;;;;5032201;28;20382;-76
2022/03/12 05:37:11;;;;;;;;;;;13.00;1868.80;;;;;;5034404;28;19905;-76
2022/03/12 05:39:37;;;;;;;;;;;12.90;1868.80;;;;;;5037342;28;19999;-76
2022/03/12 05:42:06;;;;;;;;;;;0.00;1868.80;;;;;;5035686;28;20019;-76
2022/03/12 05:44:34;;;;;;;;;;;0.10;1843.20;;;;;;5037358;28;20420;-77
2022/03/12 05:47:00;;;;;;;;;;;0.30;1817.60;;;;;;5035817;28;19963;-76
2022/03/12 05:49:26;;;;;;;;;;;0.40;1817.60;;;;;;5035977;28;19905;-76
2022/03/12 05:51:51;;;;;;;;;;;0.30;1792.00;;;;;;5035984;28;19992;-88
2022/03/12 05:54:17;;;;;;;;;;;0.40;1792.00;;;;;;5035743;28;19912;-80
2022/03/12 05:56:43;;;;;;;;;;;0.40;1792.00;;;;;;5035938;28;19905;-87
2022/03/12 05:59:09;;;;;;;;;;;0.30;1792.00;;;;;;5036093;28;20260;-76
2022/03/12 06:01:34;;;;;;;;;;;0.40;1792.00;;;;;;5035363;28;20355;-77
2022/03/12 06:04:00;;;;;;;;;;;0.70;1792.00;;;;;;5035780;28;19912;-82
2022/03/12 06:06:29;;;;;;;;;;;25.60;1792.00;;;;;;5036581;28;19917;-76
2022/03/12 06:08:58;;;;;;;;;;;0.80;1792.00;;;;;;5035445;28;20355;-76
2022/03/12 06:11:25;;;;;;;;;;;0.80;1766.40;;;;;;5035295;28;19909;-77
2022/03/12 06:14:00;;;;;;;;;;;0.90;1766.40;;;;;;5035693;28;20270;-76
2022/03/12 06:16:26;;;;;;;;;;;0.90;1792.00;;;;;;5035517;28;19912;-76
2022/03/12 06:18:52;;;;;;;;;;;25.60;1766.40;;;;;;5035185;28;19909;-76
2022/03/12 06:21:18;;;;;;;;;;;0.80;1792.00;;;;;;5035548;28;19905;-76
2022/03/12 06:23:44;;;;;;;;;;;0.90;1792.00;;;;;;5035251;28;19905;-76
2022/03/12 06:26:14;;;;;;;;;;;0.90;1817.60;;;;;;5036417;28;19963;-77
2022/03/12 06:28:41;;;;;;;;;;;25.60;1817.60;;;;;;5035174;28;19916;-83
2022/03/12 06:31:07;;;;;;;;;;;25.70;1817.60;;;;;;5034997;28;19912;-87
2022/03/12 06:33:34;;;;;;;;;;;25.90;1817.60;;;;;;5034794;28;19905;-76
2022/03/12 06:36:01;;;;;;;;;;;26.10;1817.60;;;;;;5034859;28;19909;-76
2022/03/12 06:38:26;;;;;;;;;;;26.20;1817.60;;;;;;5035125;28;19905;-75
2022/03/12 06:40:55;;;;;;;;;;;26.30;1792.00;;;;;;5034672;28;19905;-84
2022/03/12 06:43:21;;;;;;;;;;;26.40;1792.00;;;;;;5035183;28;20054;-76
2022/03/12 06:45:48;;;;;;;;;;;26.40;1792.00;;;;;;5034864;28;19952;-76
2022/03/12 06:48:13;;;;;;;;;;;51.20;1792.00;;;;;;5033828;28;19921;-85
2022/03/12 06:50:39;;;;;;;;;;;51.50;1792.00;;;;;;5034527;28;19909;-75
2022/03/12 06:53:06;;;;;;;;;;;26.50;1766.40;;;;;;5034609;28;20003;-85
2022/03/12 06:55:33;;;;;;;;;;;26.20;1792.00;;;;;;5036596;28;19905;-76
2022/03/12 06:57:59;;;;;;;;;;;26.40;1792.00;;;;;;5034226;28;19912;-76
2022/03/12 07:00:25;;;;;;;;;;;26.10;1817.60;;;;;;5034915;28;19905;-78
2022/03/12 07:02:51;;;;;;;;;;;26.20;1843.20;;;;;;5035838;28;20286;-76
2022/03/12 07:05:17;;;;;;;;;;;51.30;1817.60;;;;;;5034254;28;19912;-77
2022/03/12 07:07:43;;;;;;;;;;;51.40;1792.00;;;;;;5041478;28;19975;-76
2022/03/12 07:10:09;;;;;;;;;;;51.60;1766.40;;;;;;5044913;28;20014;-80
2022/03/12 07:12:36;;;;;;;;;;;51.90;1766.40;;;;;;5039254;28;19905;-81
2022/03/12 07:15:03;;;;;;;;;;;76.80;1766.40;;;;;;5014716;28;19917;-83
2022/03/12 07:17:28;;;;;;;;;;;51.90;1740.80;;;;;;5016626;28;19905;-80
2022/03/12 07:19:54;;;;;;;;;;;76.90;1740.80;;;;;;5015130;28;19912;-79
2022/03/12 07:22:19;;;;;;;;;;;77.00;1715.20;;;;;;5015045;28;20356;-83
2022/03/12 07:24:45;;;;;;;;;;;77.40;1689.60;;;;;;5015300;28;19992;-81
2022/03/12 07:27:12;;;;;;;;;;;77.10;1664.00;;;;;;5014849;28;19913;-81
2022/03/12 07:29:37;;;;;;;;;;;76.90;1689.60;;;;;;5014803;28;19910;-82
2022/03/12 07:32:03;;;;;;;;;;;76.80;1715.20;;;;;;5014562;28;20371;-80
2022/03/12 07:34:29;;;;;;;;;;;77.00;1740.80;;;;;;5013776;28;19909;-77
2022/03/12 07:36:54;;;;;;;;;;;52.10;1740.80;;;;;;5043007;28;19916;-77
2022/03/12 07:39:20;;;;;;;;;;;52.10;1740.80;;;;;;5042378;28;19913;-82
2022/03/12 07:41:46;;;;;;;;;;;76.90;1766.40;;;;;;5042045;28;19909;-77
2022/03/12 07:44:11;;;;;;;;;;;77.10;1766.40;;;;;;5044094;28;19908;-78
2022/03/12 07:46:37;;;;;;;;;;;77.40;1740.80;;;;;;5052292;28;19912;-81
2022/03/12 07:49:06;;;;;;;;;;;77.50;1740.80;;;;;;5053549;28;19912;-79
2022/03/12 07:51:32;;;;;;;;;;;77.70;1715.20;;;;;;5055347;28;19905;-79
2022/03/12 07:54:04;;;;;;;;;;;77.40;1715.20;;;;;;5054433;28;19905;-77
2022/03/12 07:56:30;;;;;;;;;;;77.20;1715.20;;;;;;5053361;28;20421;-78
2022/03/12 07:58:56;;;;;;;;;;;77.30;1715.20;;;;;;5037096;28;20047;-77
2022/03/12 08:01:22;;;;;;;;;;;77.50;1689.60;;;;;;5038903;28;19916;-77
2022/03/12 08:03:50;;;;;;;;;;;102.40;1664.00;;;;;;5046510;28;19908;-74
2022/03/12 08:06:16;;;;;;;;;;;77.60;1664.00;;;;;;5045093;28;19956;-76
2022/03/12 08:08:42;;;;;;;;;;;102.40;1689.60;;;;;;5043276;28;19920;-81
2022/03/12 08:11:28;;;;;;;;;;;77.60;1664.00;;;;;;5041995;28;19908;-79
2022/03/12 08:14:02;;;;;;;;;;;77.70;1638.40;;;;;;5043216;28;20351;-75
2022/03/12 08:16:29;;;;;;;;;;;77.70;1612.80;;;;;;5014157;28;19909;-76
2022/03/12 08:18:54;;;;;;;;;;;77.70;1638.40;;;;;;5014663;28;19984;-80
2022/03/12 08:21:20;;;;;;;;;;;102.40;1612.80;;;;;;5033033;28;20314;-79
2022/03/12 08:23:46;;;;;;;;;;;77.70;1612.80;;;;;;5032572;28;20443;-79
2022/03/12 08:26:12;;;;;;;;;;;102.60;1638.40;;;;;;5033042;28;19949;-83
2022/03/12 08:28:38;;;;;;;;;;;77.70;1638.40;;;;;;5033054;28;19912;-80
2022/03/12 08:31:04;;;;;;;;;;;102.50;1638.40;;;;;;5032990;28;19947;-83
2022/03/12 08:33:30;;;;;;;;;;;102.50;1587.20;;;;;;5033175;28;19912;-80
2022/03/12 08:35:58;;;;;;;;;;;102.40;1612.80;;;;;;5033112;28;19905;-85
2022/03/12 08:38:24;;;;;;;;;;;102.50;1612.80;;;;;;5032730;28;19912;-76
2022/03/12 08:40:51;;;;;;;;;;;102.70;1612.80;;;;;;5033999;28;19905;-85
2022/03/12 08:43:17;;;;;;;;;;;102.80;1587.20;;;;;;5033146;28;19913;-79
2022/03/12 08:45:42;;;;;;;;;;;102.70;1587.20;;;;;;5032305;28;19920;-80
2022/03/12 08:48:10;;;;;;;;;;;102.70;1587.20;;;;;;5032586;28;19913;-89
2022/03/12 08:50:35;;;;;;;;;;;102.70;1612.80;;;;;;5032348;28;19909;-81
2022/03/12 08:53:01;;;;;;;;;;;102.70;1612.80;;;;;;5037611;28;19958;-82
2022/03/12 08:55:27;;;;;;;;;;;102.50;1612.80;;;;;;5035737;28;20318;-84
2022/03/12 08:57:53;;;;;;;;;;;102.60;1612.80;;;;;;5032108;28;19911;-82
2022/03/12 09:00:19;;;;;;;;;;;102.60;1638.40;;;;;;5034255;28;19905;-82
2022/03/12 09:02:48;;;;;;;;;;;102.80;1638.40;;;;;;5032833;28;19915;-79
2022/03/12 09:05:14;;;;;;;;;;;102.80;1612.80;;;;;;5034085;28;19920;-81
2022/03/12 09:07:41;;;;;;;;;;;102.90;1612.80;;;;;;5040711;28;19920;-83
2022/03/12 09:10:06;;;;;;;;;;;102.70;1612.80;;;;;;5042202;28;19905;-82
2022/03/12 09:12:32;;;;;;;;;;;102.90;1638.40;;;;;;5044523;28;19916;-81
2022/03/12 09:14:58;;;;;;;;;;;103.20;1612.80;;;;;;5053548;28;20051;-79
2022/03/12 09:17:23;;;;;;;;;;;103.20;1612.80;;;;;;5053570;28;19916;-81
2022/03/12 09:19:49;;;;;;;;;;;103.20;1587.20;;;;;;5050378;28;19913;-83
2022/03/12 09:22:16;;;;;;;;;;;128.00;1612.80;;;;;;5038048;28;19952;-80
2022/03/12 09:24:42;;;;;;;;;;;128.00;1587.20;;;;;;5036187;28;19909;-81
2022/03/12 09:27:08;;;;;;;;;;;128.30;1587.20;;;;;;5043412;28;19909;-81
2022/03/12 09:29:36;;;;;;;;;;;128.40;1587.20;;;;;;5056349;28;20438;-80
2022/03/12 09:32:04;;;;;;;;;;;128.10;1587.20;;;;;;5055619;28;19904;-83
2022/03/12 09:34:30;;;;;;;;;;;128.40;1587.20;;;;;;5055810;28;19905;-80
2022/03/12 09:36:56;;;;;;;;;;;128.50;1561.60;;;;;;5056639;28;19931;-82
2022/03/12 09:39:26;;;;;;;;;;;128.70;1561.60;;;;;;5057640;28;19911;-82
2022/03/12 09:41:52;;;;;;;;;;;128.90;1536.00;;;;;;5054180;28;19919;-82
2022/03/12 09:44:18;;;;;;;;;;;153.60;1510.40;;;;;;5036159;28;20019;-83
2022/03/12 09:46:43;;;;;;;;;;;153.60;1510.40;;;;;;5036213;28;20436;-81
2022/03/12 09:49:11;;;;;;;;;;;153.70;1484.80;;;;;;5051378;28;19928;-81
2022/03/12 09:51:37;;;;;;;;;;;153.60;1484.80;;;;;;5055613;28;19963;-82
2022/03/12 09:54:06;;;;;;;;;;;153.70;1484.80;;;;;;5055898;28;19904;-81
2022/03/12 09:56:31;;;;;;;;;;;153.60;1484.80;;;;;;5055469;28;19968;-81
2022/03/12 09:58:57;;;;;;;;;;;153.80;1484.80;;;;;;5055821;28;19909;-80
2022/03/12 10:01:23;;;;;;;;;;;154.10;1433.60;;;;;;5055359;28;19912;-79
2022/03/12 10:03:49;;;;;;;;;;;154.10;1433.60;;;;;;5056635;28;19905;-78
2022/03/12 10:06:15;;;;;;;;;;;154.40;1408.00;;;;;;5041489;28;19924;-79
2022/03/12 10:08:41;;;;;;;;;;;154.40;1408.00;;;;;;5046671;28;20354;-79
2022/03/12 10:11:07;;;;;;;;;;;179.20;1408.00;;;;;;5048865;28;19919;-79
2022/03/12 10:13:33;;;;;;;;;;;179.30;1382.40;;;;;;5056343;28;19913;-80
2022/03/12 10:15:59;;;;;;;;;;;179.20;1382.40;;;;;;5055270;28;19928;-79
2022/03/12 10:18:25;;;;;;;;;;;154.50;1408.00;;;;;;5055184;28;19909;-77
2022/03/12 10:20:51;;;;;;;;;;;154.50;1408.00;;;;;;5054801;28;19948;-77
2022/03/12 10:23:16;;;;;;;;;;;154.50;1408.00;;;;;;5053912;28;19912;-79
2022/03/12 10:25:45;;;;;;;;;;;179.30;1382.40;;;;;;5054619;28;19904;-77
2022/03/12 10:28:12;;;;;;;;;;;179.70;1356.80;;;;;;5054880;28;19971;-78
2022/03/12 10:30:38;;;;;;;;;;;179.70;1356.80;;;;;;5054626;28;19928;-77
2022/03/12 10:33:05;;;;;;;;;;;179.70;1331.20;;;;;;5054562;28;20381;-77
2022/03/12 10:35:37;;;;;;;;;;;179.80;1331.20;;;;;;5054642;28;19909;-77
2022/03/12 10:38:09;;;;;;;;;;;204.80;1331.20;;;;;;5054743;28;20374;-78
2022/03/12 10:40:34;;;;;;;;;;;204.90;1280.00;;;;;;5054450;28;19905;-78
2022/03/12 10:43:02;;;;;;;;;;;205.10;1305.60;;;;;;5054568;28;19916;-77
2022/03/12 10:45:29;;;;;;;;;;;205.40;1254.40;;;;;;5054111;28;19916;-79
2022/03/12 10:47:57;;;;;;;;;;;205.20;1280.00;;;;;;5054321;28;20459;-78
2022/03/12 10:50:27;;;;;;;;;;;205.10;1280.00;;;;;;5053491;28;19909;-78
2022/03/12 10:52:54;;;;;;;;;;;204.80;1280.00;;;;;;5054446;28;19927;-78
2022/03/12 10:55:24;;;;;;;;;;;205.00;1280.00;;;;;;5035722;28;19947;-77
2022/03/12 10:58:04;;;;;;;;;;;205.70;1228.80;;;;;;5035402;28;19909;-77
2022/03/12 11:00:32;;;;;;;;;;;205.10;1254.40;;;;;;5033913;28;19905;-78
2022/03/12 11:03:01;;;;;;;;;;;205.20;1254.40;;;;;;5033975;28;19927;-77
2022/03/12 11:05:33;;;;;;;;;;;205.40;1228.80;;;;;;5041773;28;19939;-77
2022/03/12 11:08:06;;;;;;;;;;;230.40;1203.20;;;;;;5043238;28;19913;-76
2022/03/12 11:10:33;;;;;;;;;;;230.50;1203.20;;;;;;5039884;28;19911;-79
2022/03/12 11:12:59;;;;;;;;;;;231.20;1152.00;;;;;;5043289;28;20313;-79
2022/03/12 11:15:24;;;;;;;;;;;230.60;1152.00;;;;;;5045161;28;19915;-77
2022/03/12 11:17:51;;;;;;;;;;;231.00;1152.00;;;;;;5042161;28;19905;-78
2022/03/12 11:20:28;;;;;;;;;;;231.30;1126.40;;;;;;5043456;28;20288;-79
2022/03/12 11:23:07;;;;;;;;;;;256.20;1100.80;;;;;;5040285;28;20240;-75
2022/03/12 11:25:36;;;;;;;;;;;231.30;1100.80;;;;;;5034934;28;19996;-78
2022/03/12 11:28:18;;;;;;;;;;;231.00;1075.20;;;;;;5034810;28;19920;-79
2022/03/12 11:30:44;;;;;;;;;;;231.30;1100.80;;;;;;5033464;28;19963;-76
2022/03/12 11:33:10;;;;;;;;;;;231.20;1100.80;;;;;;5034505;28;19944;-78
2022/03/12 11:35:36;;;;;;;;;;;230.80;1100.80;;;;;;5034323;28;19951;-77
2022/03/12 11:38:18;;;;;;;;;;;256.00;1075.20;;;;;;5033157;28;19912;-76
2022/03/12 11:40:46;;;;;;;;;;;256.40;1049.60;;;;;;5033269;28;20282;-80
2022/03/12 11:43:22;;;;;;;;;;;256.70;998.40;;;;;;5034501;28;20417;-77
2022/03/12 11:45:48;;;;;;;;;;;256.20;1049.60;;;;;;5034356;28;19905;-81
2022/03/12 11:48:15;;;;;;;;;;;256.20;1049.60;;;;;;5032979;28;19913;-77
2022/03/12 11:50:40;;;;;;;;;;;256.10;1075.20;;;;;;5032776;28;19996;-78
2022/03/12 11:53:06;;;;;;;;;;;256.20;1100.80;;;;;;5034143;28;19920;-77
2022/03/12 11:55:32;;;;;;;;;;;256.60;1049.60;;;;;;5029443;28;19920;-78
2022/03/12 11:57:59;;;;;;;;;;;256.90;1024.00;;;;;;5029758;28;19905;-77
2022/03/12 12:00:25;;;;;;;;;;;282.00;1049.60;;;;;;5029568;28;20426;-77
2022/03/12 12:02:54;;;;;;;;;;;256.90;998.40;;;;;;5029802;28;19933;-78
2022/03/12 12:05:22;;;;;;;;;;;281.90;1024.00;;;;;;5029317;28;19917;-77
2022/03/12 12:07:51;;;;;;;;;;;282.00;1024.00;;;;;;5030199;28;19913;-80
2022/03/12 12:10:18;;;;;;;;;;;281.90;1049.60;;;;;;5030026;28;19905;-79
2022/03/12 12:12:46;;;;;;;;;;;282.30;998.40;;;;;;5034384;28;20016;-80
2022/03/12 12:15:20;;;;;;;;;;;282.50;972.80;;;;;;5039389;28;20330;-79
2022/03/12 12:17:46;;;;;;;;;;;307.30;972.80;;;;;;5041331;28;20071;-80
2022/03/12 12:20:16;;;;;;;;;;;307.60;972.80;;;;;;5042937;28;19905;-78
2022/03/12 12:22:43;;;;;;;;;;;281.90;998.40;;;;;;5042607;28;19916;-78
2022/03/12 12:25:09;;;;;;;;;;;256.90;972.80;;;;;;5045040;28;19912;-77
2022/03/12 12:27:43;;;;;;;;;;;281.70;1024.00;;;;;;5054001;28;20369;-80
2022/03/12 12:30:15;;;;;;;;;;;281.90;1024.00;;;;;;5052904;28;20015;-84
2022/03/12 12:32:45;;;;;;;;;;;256.40;1024.00;;;;;;5052624;28;19912;-78
2022/03/12 12:35:12;;;;;;;;;;;256.90;1024.00;;;;;;5052507;28;19905;-76
2022/03/12 12:37:58;;;;;;;;;;;256.70;1024.00;;;;;;5052390;28;19905;-77
2022/03/12 12:40:26;;;;;;;;;;;256.80;1024.00;;;;;;5052723;28;20343;-77
2022/03/12 12:42:54;;;;;;;;;;;256.50;1024.00;;;;;;5051840;28;19908;-78
2022/03/12 12:45:22;;;;;;;;;;;282.00;1049.60;;;;;;5043617;28;19921;-77
2022/03/12 12:47:47;;;;;;;;;;;281.80;1024.00;;;;;;5042141;28;19999;-81
2022/03/12 12:50:25;;;;;;;;;;;281.90;1024.00;;;;;;5049660;28;20058;-79
2022/03/12 12:53:06;;;;;;;;;;;282.00;998.40;;;;;;5049658;28;20270;-79
2022/03/12 12:55:33;;;;;;;;;;;282.00;998.40;;;;;;5049205;28;19913;-79
2022/03/12 12:57:59;;;;;;;;;;;256.90;998.40;;;;;;5048020;28;19950;-80
2022/03/12 13:00:28;;;;;;;;;;;281.70;972.80;;;;;;5040537;28;20376;-78
2022/03/12 13:02:54;;;;;;;;;;;281.70;998.40;;;;;;5039299;28;19905;-79
2022/03/12 13:05:58;;;;;;;;;;;282.40;998.40;;;;;;5040097;28;19923;-79
2022/03/12 13:08:25;;;;;;;;;;;307.30;972.80;;;;;;4982186;28;19988;-78
2022/03/12 13:10:54;;;;;;;;;;;307.80;947.20;;;;;;4998622;28;19906;-79
2022/03/12 13:13:21;;;;;;;;;;;307.80;947.20;;;;;;4982044;28;19940;-76
2022/03/12 13:15:48;;;;;;;;;;;282.30;947.20;;;;;;4981698;28;20002;-79
2022/03/12 13:18:19;;;;;;;;;;;307.60;998.40;;;;;;4981978;28;20378;-79
2022/03/12 13:20:48;;;;;;;;;;;308.00;972.80;;;;;;4998518;28;19932;-79
2022/03/12 13:23:15;;;;;;;;;;;307.90;972.80;;;;;;4999007;28;19905;-80
2022/03/12 13:25:45;;;;;;;;;;;307.50;972.80;;;;;;4998374;28;19912;-79
2022/03/12 13:28:13;;;;;;;;;;;282.40;947.20;;;;;;4998999;28;20012;-80
2022/03/12 13:30:39;;;;;;;;;;;307.30;972.80;;;;;;4982668;28;19922;-79
2022/03/12 13:33:06;;;;;;;;;;;307.60;972.80;;;;;;4998646;28;19910;-78
2022/03/12 13:35:32;;;;;;;;;;;307.70;972.80;;;;;;5001291;28;19912;-79
2022/03/12 13:37:58;;;;;;;;;;;282.50;947.20;;;;;;5008552;28;19993;-77
2022/03/12 13:40:25;;;;;;;;;;;282.30;972.80;;;;;;5048145;28;19913;-79
2022/03/12 13:42:52;;;;;;;;;;;282.00;998.40;;;;;;5049694;28;19963;-79
2022/03/12 13:45:19;;;;;;;;;;;282.20;998.40;;;;;;5049560;28;19959;-79
2022/03/12 13:47:55;;;;;;;;;;;282.00;972.80;;;;;;5046840;28;19912;-78
2022/03/12 13:50:21;;;;;;;;;;;281.60;972.80;;;;;;5048682;28;19909;-78
2022/03/12 13:52:53;;;;;;;;;;;282.20;972.80;;;;;;5047958;28;20266;-78